Time;durP1;ratioP1;P1;durP2;ratioP2;P2;SDS_P1;SDS_P2;PMS_P1;PMS_P2;Temp;Humidity;BMP_temperature;BMP_pressure;BME280_temperature;BME280_humidity;BME280_pressure;Samples;Min_cycle;Max_cycle;Signal;HPM_P1;HPM_P2
2022/01/11 00:00:35;;;;;;;22.70;12.32;;;2.40;90.20;;;;;;5019950;28;20492;-76
2022/01/11 00:03:03;;;;;;;21.05;12.20;;;2.40;90.10;;;;;;5018740;28;20034;-73
2022/01/11 00:07:56;;;;;;;25.00;13.38;;;2.40;90.30;;;;;;5019522;28;20107;-71
2022/01/11 00:10:29;;;;;;;24.88;13.48;;;2.40;90.50;;;;;;5018915;28;20465;-74
2022/01/11 00:12:56;;;;;;;21.90;13.18;;;2.40;90.40;;;;;;5016926;28;20044;-75
2022/01/11 00:15:22;;;;;;;20.02;13.15;;;2.50;90.30;;;;;;5018202;28;20037;-76
2022/01/11 00:17:48;;;;;;;22.17;14.05;;;2.40;90.20;;;;;;5017371;28;20021;-75
2022/01/11 00:20:16;;;;;;;22.55;13.90;;;2.50;90.20;;;;;;5020248;28;20045;-75
2022/01/11 00:24:27;;;;;;;22.67;14.02;;;2.40;90.10;;;;;;5020677;28;20772;-72
2022/01/11 00:25:32;;;;;;;23.42;14.07;;;2.40;90.30;;;;;;5020010;28;20492;-75
2022/01/11 00:27:58;;;;;;;24.00;14.25;;;2.40;90.30;;;;;;5014473;28;20030;-76
2022/01/11 00:30:29;;;;;;;23.42;14.98;;;2.40;90.30;;;;;;5015119;28;20100;-76
2022/01/11 00:32:57;;;;;;;23.48;15.85;;;2.40;90.40;;;;;;5018228;28;20032;-77
2022/01/11 00:35:28;;;;;;;24.98;15.27;;;2.40;90.50;;;;;;5020534;28;20037;-74
2022/01/11 00:37:54;;;;;;;21.52;14.75;;;2.40;90.40;;;;;;5023622;28;20032;-73
2022/01/11 00:40:20;;;;;;;24.65;14.57;;;2.40;90.40;;;;;;5021859;28;20177;-74
2022/01/11 00:42:46;;;;;;;28.42;14.80;;;2.40;90.30;;;;;;5019419;28;20521;-73
2022/01/11 00:45:12;;;;;;;25.33;15.02;;;2.40;90.40;;;;;;5024168;28;20455;-73
2022/01/11 00:47:38;;;;;;;25.92;14.23;;;2.30;90.40;;;;;;5015424;28;20057;-73
2022/01/11 00:50:06;;;;;;;27.73;14.80;;;2.40;90.40;;;;;;5022989;28;20114;-75
2022/01/11 00:52:31;;;;;;;28.67;16.00;;;2.40;90.60;;;;;;5019525;28;20044;-74
2022/01/11 00:54:57;;;;;;;26.17;15.45;;;2.40;90.50;;;;;;5025518;28;20037;-72
2022/01/11 00:57:23;;;;;;;23.83;14.73;;;2.40;90.60;;;;;;5024225;28;20378;-75
2022/01/11 00:59:49;;;;;;;21.92;14.82;;;2.40;90.60;;;;;;5025215;28;20393;-77
2022/01/11 01:02:14;;;;;;;27.30;15.35;;;2.40;90.60;;;;;;5012008;28;20380;-76
2022/01/11 01:04:40;;;;;;;27.08;15.27;;;2.30;90.60;;;;;;5014063;28;20029;-72
2022/01/11 01:07:06;;;;;;;27.05;17.33;;;2.40;90.70;;;;;;5024003;28;20175;-74
2022/01/11 01:09:43;;;;;;;26.42;16.73;;;2.30;90.70;;;;;;5037329;28;20029;-76
2022/01/11 01:12:09;;;;;;;33.33;15.68;;;2.40;90.60;;;;;;5013684;28;20484;-73
2022/01/11 01:14:35;;;;;;;24.85;15.88;;;2.40;90.60;;;;;;5019284;28;20034;-73
2022/01/11 01:17:01;;;;;;;24.92;14.65;;;2.40;90.60;;;;;;5013801;28;20081;-74
2022/01/11 01:19:27;;;;;;;25.00;14.43;;;2.30;90.60;;;;;;5024181;28;20045;-72
2022/01/11 01:21:54;;;;;;;26.33;15.40;;;2.30;90.80;;;;;;5023420;28;20033;-74
2022/01/11 01:24:20;;;;;;;27.77;15.50;;;2.30;90.70;;;;;;5025503;28;20103;-75
2022/01/11 01:26:46;;;;;;;26.30;15.68;;;2.30;90.70;;;;;;5013310;28;20469;-76
2022/01/11 01:29:12;;;;;;;22.05;15.07;;;2.30;90.80;;;;;;5020204;28;20037;-74
2022/01/11 01:31:37;;;;;;;25.23;15.68;;;2.40;90.70;;;;;;5023337;28;20048;-72
2022/01/11 01:34:03;;;;;;;27.50;15.60;;;2.40;90.70;;;;;;5020096;28;20060;-72
2022/01/11 01:36:29;;;;;;;26.13;15.80;;;2.40;90.70;;;;;;5016494;28;20048;-74
2022/01/11 01:38:55;;;;;;;29.90;16.90;;;2.30;90.80;;;;;;5021463;28;20465;-76
2022/01/11 01:41:22;;;;;;;33.35;17.33;;;2.30;90.80;;;;;;5021956;28;20437;-75
2022/01/11 01:43:54;;;;;;;26.60;15.43;;;2.30;90.80;;;;;;5021392;28;20488;-71
2022/01/11 01:46:20;;;;;;;26.75;16.27;;;2.30;90.90;;;;;;5020856;28;20076;-77
2022/01/11 01:48:46;;;;;;;26.50;15.57;;;2.30;90.80;;;;;;5015776;28;20042;-75
2022/01/11 01:51:13;;;;;;;27.60;15.10;;;2.30;90.80;;;;;;5020614;28;20037;-75
2022/01/11 01:53:42;;;;;;;25.90;16.23;;;2.30;90.70;;;;;;5018098;28;20033;-76
2022/01/11 01:56:08;;;;;;;23.10;14.23;;;2.30;90.70;;;;;;5018537;28;20338;-72
2022/01/11 01:58:33;;;;;;;27.45;14.07;;;2.30;90.60;;;;;;5021285;28;20060;-72
2022/01/11 02:01:03;;;;;;;21.23;12.55;;;2.20;90.70;;;;;;5020360;28;20038;-75
2022/01/11 02:03:36;;;;;;;23.85;12.93;;;2.30;90.80;;;;;;5022368;28;20128;-73
2022/01/11 02:06:02;;;;;;;24.88;14.25;;;2.20;90.60;;;;;;5023092;28;20025;-75
2022/01/11 02:08:28;;;;;;;28.75;14.40;;;2.20;90.70;;;;;;5011125;28;20065;-76
2022/01/11 02:10:54;;;;;;;25.60;14.85;;;2.30;90.70;;;;;;5021359;28;20120;-73
2022/01/11 02:13:20;;;;;;;27.08;14.52;;;2.20;90.60;;;;;;5022570;28;20029;-73
2022/01/11 02:15:46;;;;;;;27.02;14.48;;;2.30;90.60;;;;;;5021681;28;20362;-72
2022/01/11 02:18:19;;;;;;;27.90;15.80;;;2.30;90.50;;;;;;5009518;28;20025;-75
2022/01/11 02:20:47;;;;;;;23.50;14.23;;;2.30;90.50;;;;;;5020375;28;20068;-74
2022/01/11 02:23:17;;;;;;;28.23;14.75;;;2.30;90.50;;;;;;5025314;28;20553;-71
2022/01/11 02:25:43;;;;;;;25.20;15.02;;;2.30;90.40;;;;;;5016887;28;20029;-75
2022/01/11 02:28:21;;;;;;;29.88;16.58;;;2.30;90.50;;;;;;5009843;28;20033;-76
2022/01/11 02:30:47;;;;;;;28.40;16.30;;;2.20;90.50;;;;;;5006255;28;20038;-74
2022/01/11 02:33:32;;;;;;;30.92;16.88;;;2.30;90.50;;;;;;5001536;28;20025;-74
2022/01/11 02:35:59;;;;;;;33.77;16.17;;;2.20;90.40;;;;;;5012896;28;20379;-72
2022/01/11 02:38:24;;;;;;;31.35;16.55;;;2.20;90.50;;;;;;5019492;28;20119;-73
2022/01/11 02:40:50;;;;;;;32.40;17.15;;;2.20;90.60;;;;;;5017485;28;20116;-73
2022/01/11 02:43:16;;;;;;;32.78;16.35;;;2.20;90.60;;;;;;5015531;28;20057;-73
2022/01/11 02:45:41;;;;;;;30.02;15.38;;;2.20;90.60;;;;;;5016910;28;20177;-73
2022/01/11 02:48:07;;;;;;;30.55;15.60;;;2.20;90.70;;;;;;5018766;28;20098;-75
2022/01/11 02:50:33;;;;;;;29.23;15.95;;;2.10;90.70;;;;;;5013639;28;20034;-73
2022/01/11 02:52:59;;;;;;;32.80;15.25;;;2.10;90.80;;;;;;5001569;28;20049;-75
2022/01/11 02:55:25;;;;;;;35.97;16.65;;;2.10;90.80;;;;;;5020635;28;20269;-73
2022/01/11 02:57:50;;;;;;;30.77;16.73;;;2.20;90.80;;;;;;5015075;28;20060;-73
2022/01/11 03:00:21;;;;;;;34.53;16.98;;;2.20;90.80;;;;;;5011355;28;20462;-79
2022/01/11 03:02:47;;;;;;;33.63;16.30;;;2.10;90.80;;;;;;5010910;28;20080;-75
2022/01/11 03:05:13;;;;;;;29.30;16.35;;;2.20;90.70;;;;;;5021369;28;20121;-72
2022/01/11 03:07:40;;;;;;;30.48;15.73;;;2.20;90.60;;;;;;5022559;28;20107;-72
2022/01/11 03:10:32;;;;;;;31.52;15.10;;;2.10;90.70;;;;;;5021650;28;20079;-76
2022/01/11 03:13:00;;;;;;;32.92;16.48;;;2.20;90.60;;;;;;5005191;28;20570;-72
2022/01/11 03:15:26;;;;;;;31.42;16.00;;;2.10;90.60;;;;;;5018141;28;20036;-74
2022/01/11 03:17:52;;;;;;;28.95;16.75;;;2.20;90.70;;;;;;5014995;28;20037;-72
2022/01/11 03:20:17;;;;;;;29.80;16.15;;;2.20;90.70;;;;;;4999320;28;20066;-76
2022/01/11 03:22:43;;;;;;;25.90;15.90;;;2.20;90.60;;;;;;5016902;28;20427;-72
2022/01/11 03:25:09;;;;;;;33.33;16.92;;;2.20;90.60;;;;;;5018275;28;20445;-74
2022/01/11 03:27:35;;;;;;;25.33;16.42;;;2.20;90.70;;;;;;5032143;28;20034;-74
2022/01/11 03:30:01;;;;;;;26.25;16.25;;;2.20;90.60;;;;;;5017418;28;20029;-75
2022/01/11 03:32:27;;;;;;;30.80;17.08;;;2.20;90.60;;;;;;5011975;28;20030;-74
2022/01/11 03:34:53;;;;;;;33.38;16.92;;;2.20;90.50;;;;;;5002917;28;20168;-75
2022/01/11 03:37:20;;;;;;;30.42;17.50;;;2.20;90.60;;;;;;5008902;28;20061;-75
2022/01/11 03:39:47;;;;;;;29.38;16.33;;;2.20;90.50;;;;;;5014949;28;20066;-74
2022/01/11 03:42:13;;;;;;;29.20;16.58;;;2.20;90.60;;;;;;5011799;28;20044;-74
2022/01/11 03:44:38;;;;;;;28.08;16.40;;;2.10;90.60;;;;;;5017428;28;20033;-74
2022/01/11 03:47:05;;;;;;;32.35;17.92;;;2.10;90.50;;;;;;5015016;28;20057;-76
2022/01/11 03:49:31;;;;;;;28.85;17.05;;;2.10;90.60;;;;;;5017589;28;20079;-74
2022/01/11 03:51:56;;;;;;;30.55;17.80;;;2.10;90.70;;;;;;5026305;28;20042;-75
2022/01/11 03:54:28;;;;;;;32.05;18.30;;;2.10;90.90;;;;;;5014761;28;20030;-72
2022/01/11 03:56:54;;;;;;;31.73;17.02;;;2.10;90.90;;;;;;5012111;28;20501;-75
2022/01/11 03:59:21;;;;;;;33.25;17.75;;;2.20;90.80;;;;;;5007929;28;20489;-70
2022/01/11 04:01:47;;;;;;;34.42;18.00;;;2.10;90.70;;;;;;5018830;28;20040;-76
2022/01/11 04:04:14;;;;;;;35.00;18.40;;;2.10;90.80;;;;;;5020569;28;20038;-72
2022/01/11 04:06:40;;;;;;;37.50;20.65;;;2.10;90.90;;;;;;5017154;28;20033;-74
2022/01/11 04:09:08;;;;;;;34.70;20.10;;;2.10;91.00;;;;;;5019674;28;20460;-72
2022/01/11 04:11:34;;;;;;;37.55;21.73;;;2.10;91.10;;;;;;5021188;28;20562;-75
2022/01/11 04:13:59;;;;;;;41.33;21.17;;;2.10;91.10;;;;;;5020611;28;20613;-75
2022/01/11 04:16:25;;;;;;;40.20;21.42;;;2.10;91.10;;;;;;5022778;28;20034;-75
2022/01/11 04:18:51;;;;;;;36.40;20.52;;;2.00;91.20;;;;;;5023852;28;20412;-72
2022/01/11 04:21:17;;;;;;;35.33;22.10;;;2.00;91.20;;;;;;5018928;28;20113;-72
2022/01/11 04:23:43;;;;;;;36.45;20.15;;;2.10;91.10;;;;;;5021964;28;20480;-75
2022/01/11 04:26:08;;;;;;;44.83;22.08;;;2.00;91.10;;;;;;5019347;28;20042;-73
2022/01/11 04:28:34;;;;;;;41.47;21.75;;;2.00;91.00;;;;;;5023654;28;20087;-78
2022/01/11 04:31:00;;;;;;;42.00;20.80;;;2.00;91.10;;;;;;5018025;28;20036;-74
2022/01/11 04:33:31;;;;;;;41.75;21.88;;;2.00;91.00;;;;;;5023186;28;20087;-72
2022/01/11 04:35:58;;;;;;;41.85;20.65;;;2.00;91.10;;;;;;5024067;28;20037;-71
2022/01/11 04:38:27;;;;;;;38.80;19.67;;;2.00;91.10;;;;;;5023117;28;20661;-77
2022/01/11 04:40:53;;;;;;;40.20;20.98;;;2.10;91.10;;;;;;5018364;28;20040;-72
2022/01/11 04:43:19;;;;;;;41.03;22.40;;;2.10;91.00;;;;;;5019810;28;20037;-77
2022/01/11 04:45:47;;;;;;;40.78;22.40;;;2.00;91.00;;;;;;5018794;28;20042;-79
2022/01/11 04:48:14;;;;;;;39.47;21.20;;;2.00;91.00;;;;;;5017565;28;20619;-74
2022/01/11 04:50:41;;;;;;;42.35;21.75;;;2.00;91.00;;;;;;5017948;28;20436;-73
2022/01/11 04:53:07;;;;;;;38.65;21.95;;;2.00;90.90;;;;;;5028028;28;20034;-78
2022/01/11 04:55:33;;;;;;;37.85;21.55;;;2.00;91.00;;;;;;5012298;28;20045;-76
2022/01/11 04:57:59;;;;;;;39.72;22.45;;;2.00;91.00;;;;;;5023455;28;20026;-78
2022/01/11 05:00:25;;;;;;;39.72;21.73;;;2.10;90.90;;;;;;5014210;28;20058;-72
2022/01/11 05:02:51;;;;;;;40.53;21.58;;;2.10;90.90;;;;;;5021713;28;20025;-73
2022/01/11 05:05:17;;;;;;;39.58;22.92;;;2.00;91.00;;;;;;5021612;28;20531;-72
2022/01/11 05:07:44;;;;;;;40.50;21.73;;;2.00;91.00;;;;;;5016085;28;20452;-74
2022/01/11 05:10:10;;;;;;;38.55;22.35;;;2.00;91.00;;;;;;5014231;28;20108;-75
2022/01/11 05:12:38;;;;;;;40.88;22.90;;;2.10;90.90;;;;;;5018555;28;20072;-77
2022/01/11 05:15:06;;;;;;;44.53;23.17;;;2.00;90.80;;;;;;5012428;28;20022;-74
2022/01/11 05:17:31;;;;;;;40.78;21.95;;;2.10;90.70;;;;;;5017291;28;20069;-73
2022/01/11 05:19:57;;;;;;;44.83;23.98;;;2.10;90.70;;;;;;5024440;28;20042;-77
2022/01/11 05:22:23;;;;;;;44.45;24.88;;;2.10;90.60;;;;;;5018255;28;20444;-73
2022/01/11 05:24:49;;;;;;;48.08;24.73;;;2.10;90.70;;;;;;5015630;28;20760;-74
2022/01/11 05:27:14;;;;;;;44.42;23.48;;;2.10;90.70;;;;;;5011379;28;20554;-72
2022/01/11 05:29:40;;;;;;;48.63;24.83;;;2.00;90.70;;;;;;5029183;28;20113;-79
2022/01/11 05:32:06;;;;;;;45.13;24.00;;;2.00;90.60;;;;;;5017777;28;20029;-73
2022/01/11 05:34:32;;;;;;;51.20;26.33;;;1.90;90.70;;;;;;5014848;28;20068;-75
2022/01/11 05:36:57;;;;;;;45.90;24.20;;;1.90;90.70;;;;;;5013566;28;20033;-76
2022/01/11 05:39:23;;;;;;;48.13;24.25;;;1.90;90.80;;;;;;5029819;28;20363;-75
2022/01/11 05:41:49;;;;;;;46.42;26.90;;;1.90;90.80;;;;;;5006676;28;20458;-75
2022/01/11 05:44:14;;;;;;;46.40;25.40;;;1.90;90.70;;;;;;5010544;28;20092;-77
2022/01/11 05:46:40;;;;;;;44.17;24.60;;;1.90;90.70;;;;;;5017414;28;20125;-72
2022/01/11 05:49:06;;;;;;;46.80;25.83;;;1.90;90.70;;;;;;5017898;28;20032;-74
2022/01/11 05:51:31;;;;;;;49.95;24.88;;;1.90;90.50;;;;;;5020303;28;20377;-77
2022/01/11 05:53:57;;;;;;;43.63;25.05;;;1.80;90.40;;;;;;5022311;28;20037;-73
2022/01/11 05:56:23;;;;;;;47.30;24.48;;;1.80;90.50;;;;;;5014970;28;20076;-74
2022/01/11 05:58:48;;;;;;;47.28;26.45;;;1.80;90.60;;;;;;5014954;28;20298;-72
2022/01/11 06:01:14;;;;;;;46.38;25.98;;;1.80;90.50;;;;;;5010836;28;20588;-74
2022/01/11 06:03:40;;;;;;;41.75;25.30;;;1.70;90.50;;;;;;5019875;28;20056;-73
2022/01/11 06:06:06;;;;;;;46.08;24.88;;;1.70;90.60;;;;;;5016000;28;20488;-76
2022/01/11 06:08:32;;;;;;;44.42;25.55;;;1.70;90.60;;;;;;5026178;28;20470;-74
2022/01/11 06:10:58;;;;;;;50.22;26.35;;;1.70;90.80;;;;;;5016739;28;20084;-75
2022/01/11 06:13:24;;;;;;;45.75;25.90;;;1.60;90.70;;;;;;5010648;28;20045;-76
2022/01/11 06:15:51;;;;;;;48.22;26.65;;;1.60;90.80;;;;;;5011843;28;20441;-73
2022/01/11 06:18:17;;;;;;;51.08;26.80;;;1.60;90.80;;;;;;5015849;28;20536;-73
2022/01/11 06:20:43;;;;;;;50.10;26.92;;;1.60;90.80;;;;;;5013142;28;20033;-72
2022/01/11 06:23:09;;;;;;;45.47;24.77;;;1.60;90.90;;;;;;5021433;28;20155;-71
2022/01/11 06:25:36;;;;;;;53.17;26.17;;;1.60;90.90;;;;;;5024715;28;20582;-71
2022/01/11 06:28:02;;;;;;;48.97;26.63;;;1.60;90.90;;;;;;5024878;28;20032;-71
2022/01/11 06:30:28;;;;;;;47.78;27.52;;;1.60;91.00;;;;;;5029271;28;20026;-72
2022/01/11 06:32:57;;;;;;;50.58;27.52;;;1.60;90.90;;;;;;5009562;28;20540;-73
2022/01/11 06:35:24;;;;;;;50.10;27.48;;;1.60;90.90;;;;;;5004480;28;20041;-72
2022/01/11 06:37:50;;;;;;;50.33;26.75;;;1.60;90.70;;;;;;5018937;28;20474;-76
2022/01/11 06:40:19;;;;;;;48.40;26.98;;;1.60;90.70;;;;;;5009815;28;20030;-76
2022/01/11 06:42:46;;;;;;;50.72;25.92;;;1.60;90.70;;;;;;5016399;28;20042;-76
2022/01/11 06:45:13;;;;;;;49.80;26.48;;;1.60;90.60;;;;;;5014867;28;20034;-72
2022/01/11 06:47:39;;;;;;;53.78;26.63;;;1.60;90.70;;;;;;5004255;28;20049;-73
2022/01/11 06:50:06;;;;;;;50.33;27.45;;;1.60;90.80;;;;;;5014914;28;20152;-72
2022/01/11 06:52:32;;;;;;;49.80;27.38;;;1.60;90.70;;;;;;5014062;28;20037;-74
2022/01/11 06:54:57;;;;;;;47.08;26.85;;;1.60;90.70;;;;;;5022589;28;20376;-74
2022/01/11 06:57:24;;;;;;;54.65;28.88;;;1.60;90.70;;;;;;5018410;28;20506;-73
2022/01/11 06:59:50;;;;;;;52.95;27.92;;;1.60;90.70;;;;;;5018826;28;20511;-75
2022/01/11 07:02:15;;;;;;;50.13;27.50;;;1.60;90.80;;;;;;5018706;28;20080;-77
2022/01/11 07:04:41;;;;;;;49.20;26.08;;;1.60;90.90;;;;;;5035124;28;20047;-73
2022/01/11 07:07:07;;;;;;;49.15;27.25;;;1.60;90.90;;;;;;5016312;28;20181;-73
2022/01/11 07:09:34;;;;;;;52.22;26.98;;;1.50;90.80;;;;;;5019442;28;20033;-73
2022/01/11 07:11:59;;;;;;;53.40;29.20;;;1.60;90.80;;;;;;5016086;28;20042;-75
2022/01/11 07:14:25;;;;;;;50.53;28.75;;;1.60;90.80;;;;;;5018865;28;20262;-72
2022/01/11 07:16:51;;;;;;;47.83;27.15;;;1.60;90.80;;;;;;5018266;28;20144;-73
2022/01/11 07:19:17;;;;;;;57.25;28.45;;;1.50;90.80;;;;;;5016622;28;20053;-71
2022/01/11 07:21:44;;;;;;;57.25;29.88;;;1.50;90.80;;;;;;5016068;28;20048;-71
2022/01/11 07:24:11;;;;;;;50.38;27.58;;;1.60;90.80;;;;;;5031995;28;20029;-71
2022/01/11 07:26:37;;;;;;;53.05;29.17;;;1.50;90.90;;;;;;5020028;28;20029;-74
2022/01/11 07:29:05;;;;;;;52.00;28.73;;;1.50;90.90;;;;;;5015950;28;20354;-75
2022/01/11 07:31:32;;;;;;;54.05;28.73;;;1.50;90.90;;;;;;5008959;28;20030;-75
2022/01/11 07:33:58;;;;;;;54.10;29.23;;;1.50;90.90;;;;;;5020801;28;20087;-75
2022/01/11 07:36:24;;;;;;;52.60;29.13;;;1.50;91.00;;;;;;5015496;28;20034;-73
2022/01/11 07:38:51;;;;;;;51.70;28.52;;;1.50;91.00;;;;;;5019363;28;20033;-76
2022/01/11 07:41:17;;;;;;;55.63;28.58;;;1.50;91.00;;;;;;5008990;28;20037;-73
2022/01/11 07:43:43;;;;;;;55.55;31.08;;;1.50;91.00;;;;;;5016956;28;20033;-74
2022/01/11 07:46:09;;;;;;;55.50;30.08;;;1.50;90.90;;;;;;5036191;28;20036;-75
2022/01/11 07:48:35;;;;;;;57.13;28.58;;;1.50;91.00;;;;;;5008307;28;20169;-74
2022/01/11 07:51:01;;;;;;;58.78;30.73;;;1.50;91.00;;;;;;5014454;28;20037;-74
2022/01/11 07:53:27;;;;;;;58.90;29.92;;;1.40;91.00;;;;;;5021440;28;20380;-77
2022/01/11 07:55:52;;;;;;;53.35;30.88;;;1.50;91.00;;;;;;5024425;28;20037;-76
2022/01/11 07:58:18;;;;;;;59.47;29.33;;;1.50;90.90;;;;;;5012860;28;20025;-75
2022/01/11 08:00:44;;;;;;;53.88;29.33;;;1.50;91.00;;;;;;5015530;28;20053;-74
2022/01/11 08:03:09;;;;;;;52.13;29.48;;;1.50;91.00;;;;;;5019059;28;20025;-73
2022/01/11 08:05:35;;;;;;;62.30;33.40;;;1.50;91.00;;;;;;5034893;28;20048;-74
2022/01/11 08:08:01;;;;;;;51.58;29.77;;;1.50;91.00;;;;;;5034163;28;20522;-75
2022/01/11 08:10:26;;;;;;;53.20;27.60;;;1.50;90.80;;;;;;5007837;28;20175;-76
2022/01/11 08:12:52;;;;;;;55.25;29.92;;;1.50;90.80;;;;;;5018080;28;20038;-78
2022/01/11 08:15:19;;;;;;;63.55;31.80;;;1.50;90.90;;;;;;5020277;28;20035;-75
2022/01/11 08:17:46;;;;;;;63.50;33.95;;;1.60;90.90;;;;;;5021037;28;20033;-74
2022/01/11 08:20:13;;;;;;;60.40;32.83;;;1.60;90.80;;;;;;5016504;28;20301;-73
2022/01/11 08:22:39;;;;;;;54.85;30.35;;;1.50;90.80;;;;;;5018421;28;20033;-77
2022/01/11 08:25:05;;;;;;;50.78;29.60;;;1.60;90.90;;;;;;5019598;28;20042;-78
2022/01/11 08:27:33;;;;;;;58.50;30.15;;;1.60;90.80;;;;;;5014994;28;20042;-75
2022/01/11 08:30:05;;;;;;;51.20;29.88;;;1.60;90.70;;;;;;5022305;28;20076;-75
2022/01/11 08:32:30;;;;;;;52.72;28.85;;;1.60;90.60;;;;;;5013899;28;20029;-78
2022/01/11 08:34:56;;;;;;;52.25;28.80;;;1.70;90.50;;;;;;5023811;28;20103;-75
2022/01/11 08:37:22;;;;;;;52.83;30.38;;;1.60;90.50;;;;;;5021228;28;20112;-76
2022/01/11 08:39:48;;;;;;;52.67;29.63;;;1.70;90.50;;;;;;5012285;28;20056;-77
2022/01/11 08:42:13;;;;;;;56.92;29.67;;;1.60;90.50;;;;;;5011122;28;20038;-74
2022/01/11 08:44:45;;;;;;;54.70;30.92;;;1.60;90.50;;;;;;5041854;28;20036;-74
2022/01/11 08:47:12;;;;;;;54.92;29.35;;;1.60;90.40;;;;;;5021615;28;20029;-74
2022/01/11 08:49:38;;;;;;;52.53;28.83;;;1.60;90.40;;;;;;5011760;28;20042;-79
2022/01/11 08:52:04;;;;;;;52.55;29.50;;;1.70;90.40;;;;;;5020915;28;20040;-74
2022/01/11 08:54:30;;;;;;;59.53;30.60;;;1.70;90.40;;;;;;5017039;28;20876;-77
2022/01/11 08:56:56;;;;;;;55.72;29.02;;;1.70;90.40;;;;;;5019366;28;20483;-77
2022/01/11 08:59:25;;;;;;;56.17;29.63;;;1.70;90.40;;;;;;5022946;28;20080;-79
2022/01/11 09:01:57;;;;;;;55.08;29.33;;;1.70;90.30;;;;;;5034106;28;20050;-76
2022/01/11 09:04:23;;;;;;;57.22;29.23;;;1.60;90.40;;;;;;5016085;28;20492;-80
2022/01/11 09:06:51;;;;;;;56.28;29.25;;;1.60;90.30;;;;;;5020883;28;20643;-74
2022/01/11 09:09:17;;;;;;;55.10;30.20;;;1.60;90.40;;;;;;5020972;28;20029;-73
2022/01/11 09:11:45;;;;;;;56.13;28.75;;;1.60;90.30;;;;;;5012404;28;20040;-73
2022/01/11 09:14:11;;;;;;;59.42;31.20;;;1.60;90.30;;;;;;5013735;28;20452;-82
2022/01/11 09:16:37;;;;;;;60.85;30.70;;;1.60;90.30;;;;;;5020642;28;20037;-77
2022/01/11 09:19:03;;;;;;;59.13;29.73;;;1.60;90.40;;;;;;5016299;28;20048;-77
2022/01/11 09:21:31;;;;;;;58.53;31.05;;;1.60;90.40;;;;;;5023769;28;20037;-77
2022/01/11 09:23:57;;;;;;;55.15;29.10;;;1.60;90.30;;;;;;5022984;28;20057;-75
2022/01/11 09:26:23;;;;;;;58.42;29.63;;;1.60;90.30;;;;;;5020909;28;20113;-82
2022/01/11 09:28:48;;;;;;;60.05;32.50;;;1.60;90.20;;;;;;5019120;28;20672;-76
2022/01/11 09:31:14;;;;;;;63.08;32.60;;;1.60;90.30;;;;;;5022418;28;20029;-74
2022/01/11 09:33:40;;;;;;;66.07;33.38;;;1.50;90.40;;;;;;5021060;28;20034;-78
2022/01/11 09:36:06;;;;;;;61.40;32.17;;;1.50;90.50;;;;;;5022466;28;20907;-77
2022/01/11 09:38:32;;;;;;;63.28;32.80;;;1.50;90.60;;;;;;5014924;28;20033;-75
2022/01/11 09:40:58;;;;;;;59.92;30.92;;;1.50;90.60;;;;;;5016649;28;20468;-74
2022/01/11 09:43:26;;;;;;;60.83;31.80;;;1.40;90.70;;;;;;5050654;28;20030;-78
2022/01/11 09:45:53;;;;;;;59.92;31.88;;;1.40;90.80;;;;;;5033198;28;20029;-76
2022/01/11 09:48:24;;;;;;;58.47;30.77;;;1.40;90.80;;;;;;5012678;28;20124;-76
2022/01/11 09:50:51;;;;;;;56.30;30.67;;;1.50;90.70;;;;;;5014041;28;20065;-79
2022/01/11 09:53:17;;;;;;;62.28;30.83;;;1.40;90.80;;;;;;5010964;28;20492;-73
2022/01/11 09:55:44;;;;;;;59.28;31.77;;;1.50;90.80;;;;;;5008661;28;20034;-76
2022/01/11 09:58:12;;;;;;;57.15;29.95;;;1.60;91.10;;;;;;5008140;28;20038;-79
2022/01/11 10:00:39;;;;;;;67.55;33.00;;;1.80;91.00;;;;;;5012260;28;20141;-73
2022/01/11 10:03:06;;;;;;;60.47;33.35;;;2.10;90.80;;;;;;5020993;28;20043;-76
2022/01/11 10:05:33;;;;;;;64.53;32.95;;;2.10;90.30;;;;;;5021032;28;20038;-73
2022/01/11 10:07:59;;;;;;;67.72;33.15;;;2.30;89.80;;;;;;5023624;28;20358;-75
2022/01/11 10:10:26;;;;;;;64.72;33.15;;;2.40;89.30;;;;;;5009563;28;20106;-76
2022/01/11 10:13:03;;;;;;;62.13;33.88;;;2.60;89.00;;;;;;5011063;28;20478;-76
2022/01/11 10:15:40;;;;;;;58.90;33.50;;;2.60;88.40;;;;;;5008454;28;20041;-74
2022/01/11 10:18:06;;;;;;;60.70;33.85;;;2.70;88.40;;;;;;5011581;28;20143;-76
2022/01/11 10:20:36;;;;;;;57.05;33.25;;;2.80;88.00;;;;;;5021256;28;20041;-77
2022/01/11 10:23:05;;;;;;;57.20;33.38;;;2.90;87.90;;;;;;5024516;28;20124;-75
2022/01/11 10:25:42;;;;;;;61.60;33.28;;;3.10;87.70;;;;;;5021880;28;20044;-74
2022/01/11 10:28:07;;;;;;;57.75;32.67;;;3.10;87.00;;;;;;5024135;28;20079;-73
2022/01/11 10:30:35;;;;;;;53.08;29.77;;;3.20;86.60;;;;;;5021701;28;20041;-74
2022/01/11 10:33:06;;;;;;;48.85;29.75;;;3.40;86.20;;;;;;5023378;28;20037;-74
2022/01/11 10:35:42;;;;;;;55.40;31.70;;;3.50;86.00;;;;;;5024914;28;20087;-80
2022/01/11 10:38:10;;;;;;;57.83;30.25;;;3.50;85.90;;;;;;5028594;28;20072;-74
2022/01/11 10:40:45;;;;;;;52.55;29.15;;;3.60;85.90;;;;;;5014928;28;20087;-74
2022/01/11 10:43:20;;;;;;;57.13;32.75;;;3.70;85.20;;;;;;5013341;28;20465;-83
2022/01/11 10:45:52;;;;;;;;;;;4.00;85.20;;;;;;5045410;28;20388;-78
2022/01/11 10:48:23;;;;;;;51.75;30.52;;;4.00;84.20;;;;;;5023337;28;20000;-74
2022/01/11 10:50:52;;;;;;;51.50;29.50;;;4.10;84.60;;;;;;5023253;28;20129;-78
2022/01/11 10:53:23;;;;;;;48.05;27.77;;;4.10;84.20;;;;;;5015695;28;20071;-74
2022/01/11 10:55:51;;;;;;;49.42;28.65;;;4.10;83.90;;;;;;5021553;28;20044;-73
2022/01/11 10:58:18;;;;;;;46.95;28.08;;;4.10;83.80;;;;;;5019415;28;20381;-76
2022/01/11 11:00:50;;;;;;;47.03;26.50;;;4.20;83.70;;;;;;5020415;28;20482;-73
2022/01/11 11:03:18;;;;;;;46.58;26.98;;;4.10;83.40;;;;;;5016324;28;20099;-74
2022/01/11 11:05:51;;;;;;;45.50;27.45;;;4.10;83.60;;;;;;5016575;28;20057;-78
2022/01/11 11:08:20;;;;;;;44.45;27.00;;;4.30;83.40;;;;;;5020237;28;20021;-76
2022/01/11 11:10:55;;;;;;;43.78;26.77;;;4.50;83.30;;;;;;5021440;28;20049;-81
2022/01/11 11:13:23;;;;;;;;;;;4.60;82.90;;;;;;5024643;28;20045;-77
2022/01/11 11:15:51;;;;;;;42.20;25.85;;;4.50;82.10;;;;;;5022442;28;19909;-74
2022/01/11 11:18:30;;;;;;;44.67;25.35;;;4.50;82.10;;;;;;5023325;28;20781;-76
2022/01/11 11:20:57;;;;;;;41.40;25.95;;;4.60;82.70;;;;;;5035294;28;20755;-77
2022/01/11 11:23:23;;;;;;;45.67;26.08;;;4.60;82.10;;;;;;5019405;28;20423;-75
2022/01/11 11:25:49;;;;;;;42.67;24.15;;;4.60;81.90;;;;;;5019707;28;20034;-75
2022/01/11 11:28:15;;;;;;;43.67;25.92;;;4.60;81.90;;;;;;5016185;28;20466;-79
2022/01/11 11:30:42;;;;;;;43.20;25.88;;;4.70;82.00;;;;;;5034073;28;20048;-76
2022/01/11 11:33:07;;;;;;;41.63;25.17;;;4.90;81.60;;;;;;5020791;28;20030;-75
2022/01/11 11:35:33;;;;;;;40.03;24.48;;;4.80;81.30;;;;;;5019593;28;20046;-73
2022/01/11 11:38:04;;;;;;;43.65;25.90;;;4.80;82.10;;;;;;5018656;28;20076;-75
2022/01/11 11:40:31;;;;;;;40.28;24.80;;;4.90;81.50;;;;;;5018863;28;20045;-75
2022/01/11 11:43:02;;;;;;;45.15;25.30;;;4.80;81.20;;;;;;5010059;28;20437;-74
2022/01/11 11:45:33;;;;;;;39.47;24.40;;;4.70;81.30;;;;;;5011999;28;20063;-75
2022/01/11 11:48:10;;;;;;;41.60;23.92;;;4.70;81.50;;;;;;5033502;28;20151;-75
2022/01/11 11:51:07;;;;;;;41.83;24.65;;;4.70;81.70;;;;;;5016284;28;20061;-75
2022/01/11 11:53:39;;;;;;;40.72;24.80;;;4.90;81.30;;;;;;5011049;28;20026;-74
2022/01/11 11:56:20;;;;;;;38.30;24.15;;;4.90;80.90;;;;;;5030143;28;20060;-76
2022/01/11 11:58:51;;;;;;;37.80;22.88;;;4.90;80.70;;;;;;5010850;28;20042;-77
2022/01/11 12:01:47;;;;;;;40.05;24.48;;;4.90;80.70;;;;;;5026644;28;20029;-76
2022/01/11 12:04:14;;;;;;;42.92;24.65;;;4.90;80.60;;;;;;5019545;28;20041;-74
2022/01/11 12:06:41;;;;;;;39.47;24.98;;;4.90;80.90;;;;;;5019179;28;20535;-73
2022/01/11 12:09:14;;;;;;;39.20;24.83;;;5.00;81.00;;;;;;5020435;28;20029;-75
2022/01/11 12:11:45;;;;;;;40.28;24.00;;;5.10;80.90;;;;;;5018468;28;20045;-74
2022/01/11 12:14:41;;;;;;;39.83;23.48;;;5.10;80.80;;;;;;5023255;28;20533;-77
2022/01/11 12:17:22;;;;;;;38.13;23.30;;;5.30;80.50;;;;;;5012184;28;20029;-76
2022/01/11 12:19:54;;;;;;;43.35;24.67;;;5.30;80.10;;;;;;5024218;28;20049;-77
2022/01/11 12:22:27;;;;;;;39.30;23.83;;;5.30;80.10;;;;;;5019395;28;20033;-74
2022/01/11 12:24:56;;;;;;;38.80;24.70;;;5.30;80.00;;;;;;5035499;28;20137;-78
2022/01/11 12:27:22;;;;;;;42.83;26.02;;;5.20;80.00;;;;;;5019786;28;20129;-74
2022/01/11 12:30:08;;;;;;;38.30;23.63;;;5.10;80.20;;;;;;5023113;28;20041;-78
2022/01/11 12:32:38;;;;;;;38.72;24.80;;;5.10;80.60;;;;;;5038896;28;20140;-73
2022/01/11 12:35:21;;;;;;;36.90;24.73;;;5.10;80.50;;;;;;5023833;28;20048;-78
2022/01/11 12:37:47;;;;;;;39.10;24.25;;;5.10;80.50;;;;;;5022741;28;20049;-72
2022/01/11 12:40:25;;;;;;;39.65;25.08;;;5.10;80.40;;;;;;5024550;28;20037;-74
2022/01/11 12:42:54;;;;;;;40.03;23.65;;;5.20;80.90;;;;;;5022411;28;20120;-78